sensor_id;sensor_type;location;lat;lon;timestamp;pressure;altitude;pressure_sealevel;temperature;humidity
33404;BME280;19751;40.274;18.268;2023-01-31T00:00:00;101029.50;;;6.78;100.00
33404;BME280;19751;40.274;18.268;2023-01-31T00:02:25;101031.88;;;6.81;100.00
33404;BME280;19751;40.274;18.268;2023-01-31T00:04:51;101027.34;;;6.81;100.00
33404;BME280;19751;40.274;18.268;2023-01-31T00:07:16;101023.00;;;6.80;100.00
33404;BME280;19751;40.274;18.268;2023-01-31T00:09:42;101031.03;;;6.80;100.00
33404;BME280;19751;40.274;18.268;2023-01-31T00:12:07;101015.94;;;6.79;100.00
33404;BME280;19751;40.274;18.268;2023-01-31T00:14:33;101005.41;;;6.78;100.00
33404;BME280;19751;40.274;18.268;2023-01-31T00:16:58;101006.19;;;6.70;100.00
33404;BME280;19751;40.274;18.268;2023-01-31T00:19:24;101007.50;;;6.66;100.00
33404;BME280;19751;40.274;18.268;2023-01-31T00:21:50;101005.47;;;6.60;100.00
33404;BME280;19751;40.274;18.268;2023-01-31T00:24:15;100995.06;;;6.57;100.00
33404;BME280;19751;40.274;18.268;2023-01-31T00:26:41;101003.09;;;6.57;100.00
33404;BME280;19751;40.274;18.268;2023-01-31T00:29:06;101005.78;;;6.57;100.00
33404;BME280;19751;40.274;18.268;2023-01-31T00:31:33;101011.13;;;6.57;100.00
33404;BME280;19751;40.274;18.268;2023-01-31T00:33:59;101000.06;;;6.52;100.00
33404;BME280;19751;40.274;18.268;2023-01-31T00:36:28;101001.03;;;6.51;100.00
33404;BME280;19751;40.274;18.268;2023-01-31T00:38:57;101001.38;;;6.47;100.00
33404;BME280;19751;40.274;18.268;2023-01-31T00:41:24;101001.69;;;6.44;100.00
33404;BME280;19751;40.274;18.268;2023-01-31T00:43:50;101010.72;;;6.43;100.00
33404;BME280;19751;40.274;18.268;2023-01-31T00:46:17;101011.06;;;6.48;100.00
33404;BME280;19751;40.274;18.268;2023-01-31T00:48:44;101003.63;;;6.60;100.00
33404;BME280;19751;40.274;18.268;2023-01-31T00:51:10;101004.53;;;6.69;100.00
33404;BME280;19751;40.274;18.268;2023-01-31T00:53:35;101001.19;;;6.75;100.00
33404;BME280;19751;40.274;18.268;2023-01-31T00:56:07;100995.53;;;6.78;100.00
33404;BME280;19751;40.274;18.268;2023-01-31T00:58:33;101011.44;;;6.80;100.00
33404;BME280;19751;40.274;18.268;2023-01-31T01:01:13;101015.06;;;6.70;100.00
33404;BME280;19751;40.274;18.268;2023-01-31T01:03:40;101026.00;;;6.59;100.00
33404;BME280;19751;40.274;18.268;2023-01-31T01:06:08;101019.63;;;6.52;100.00
33404;BME280;19751;40.274;18.268;2023-01-31T01:08:34;101023.31;;;6.51;100.00
33404;BME280;19751;40.274;18.268;2023-01-31T01:11:12;101025.44;;;6.47;100.00
33404;BME280;19751;40.274;18.268;2023-01-31T01:13:38;101020.41;;;6.44;100.00
33404;BME280;19751;40.274;18.268;2023-01-31T01:16:06;101021.41;;;6.43;100.00
33404;BME280;19751;40.274;18.268;2023-01-31T01:18:33;101017.25;;;6.49;100.00
33404;BME280;19751;40.274;18.268;2023-01-31T01:21:25;101022.13;;;6.54;100.00
33404;BME280;19751;40.274;18.268;2023-01-31T01:23:51;101030.00;;;6.55;100.00
33404;BME280;19751;40.274;18.268;2023-01-31T01:26:23;101029.56;;;6.60;100.00
33404;BME280;19751;40.274;18.268;2023-01-31T01:28:53;101024.94;;;6.70;100.00
33404;BME280;19751;40.274;18.268;2023-01-31T01:31:19;101025.63;;;6.72;100.00
33404;BME280;19751;40.274;18.268;2023-01-31T01:33:46;101012.25;;;6.72;100.00
33404;BME280;19751;40.274;18.268;2023-01-31T01:36:14;100996.31;;;6.70;100.00
33404;BME280;19751;40.274;18.268;2023-01-31T01:38:42;101002.91;;;6.76;100.00
33404;BME280;19751;40.274;18.268;2023-01-31T01:41:09;101012.13;;;6.82;100.00
33404;BME280;19751;40.274;18.268;2023-01-31T01:46:11;101021.25;;;6.97;100.00
33404;BME280;19751;40.274;18.268;2023-01-31T01:48:38;101034.34;;;7.08;100.00
33404;BME280;19751;40.274;18.268;2023-01-31T01:51:05;101045.13;;;7.16;100.00
33404;BME280;19751;40.274;18.268;2023-01-31T01:53:34;101055.34;;;7.21;100.00
33404;BME280;19751;40.274;18.268;2023-01-31T01:56:06;101047.31;;;7.21;100.00
33404;BME280;19751;40.274;18.268;2023-01-31T01:58:45;101048.16;;;7.21;100.00
33404;BME280;19751;40.274;18.268;2023-01-31T02:01:12;101047.31;;;7.21;100.00
33404;BME280;19751;40.274;18.268;2023-01-31T02:03:42;101050.69;;;7.23;100.00
33404;BME280;19751;40.274;18.268;2023-01-31T02:06:08;101054.38;;;7.22;100.00
33404;BME280;19751;40.274;18.268;2023-01-31T02:08:37;101045.13;;;7.16;99.88
33404;BME280;19751;40.274;18.268;2023-01-31T02:11:09;101042.28;;;7.18;100.00
33404;BME280;19751;40.274;18.268;2023-01-31T02:13:38;101041.59;;;7.16;100.00
33404;BME280;19751;40.274;18.268;2023-01-31T02:16:05;101040.09;;;7.13;100.00
33404;BME280;19751;40.274;18.268;2023-01-31T02:18:30;101023.97;;;7.05;100.00
33404;BME280;19751;40.274;18.268;2023-01-31T02:29:42;101023.41;;;6.93;100.00
33404;BME280;19751;40.274;18.268;2023-01-31T02:42:45;101024.97;;;6.78;100.00
33404;BME280;19751;40.274;18.268;2023-01-31T02:45:22;101034.03;;;6.77;100.00
33404;BME280;19751;40.274;18.268;2023-01-31T02:50:49;101033.50;;;6.73;100.00
33404;BME280;19751;40.274;18.268;2023-01-31T02:53:32;101030.81;;;6.73;100.00
33404;BME280;19751;40.274;18.268;2023-01-31T02:56:00;101020.09;;;6.73;100.00
33404;BME280;19751;40.274;18.268;2023-01-31T02:58:41;101017.13;;;6.77;100.00
33404;BME280;19751;40.274;18.268;2023-01-31T03:01:12;101014.59;;;6.75;100.00
33404;BME280;19751;40.274;18.268;2023-01-31T03:03:40;101021.31;;;6.79;100.00
33404;BME280;19751;40.274;18.268;2023-01-31T03:08:42;101015.28;;;6.77;100.00
33404;BME280;19751;40.274;18.268;2023-01-31T03:11:09;101016.78;;;6.80;100.00
33404;BME280;19751;40.274;18.268;2023-01-31T03:16:11;101030.38;;;6.86;100.00
33404;BME280;19751;40.274;18.268;2023-01-31T03:19:11;101027.72;;;6.86;100.00
33404;BME280;19751;40.274;18.268;2023-01-31T03:22:05;101030.56;;;6.85;100.00
33404;BME280;19751;40.274;18.268;2023-01-31T03:24:34;101027.03;;;6.84;100.00
33404;BME280;19751;40.274;18.268;2023-01-31T03:27:00;101040.44;;;6.84;100.00
33404;BME280;19751;40.274;18.268;2023-01-31T03:29:31;101028.84;;;6.84;100.00
33404;BME280;19751;40.274;18.268;2023-01-31T03:32:16;101024.69;;;6.81;100.00
33404;BME280;19751;40.274;18.268;2023-01-31T03:34:45;101010.13;;;6.84;100.00
33404;BME280;19751;40.274;18.268;2023-01-31T03:47:43;101023.03;;;6.88;100.00
33404;BME280;19751;40.274;18.268;2023-01-31T03:50:18;101012.78;;;6.84;100.00
33404;BME280;19751;40.274;18.268;2023-01-31T03:52:51;101023.50;;;6.84;100.00
33404;BME280;19751;40.274;18.268;2023-01-31T03:55:25;101025.50;;;6.82;100.00
33404;BME280;19751;40.274;18.268;2023-01-31T03:57:53;101015.28;;;6.77;100.00
33404;BME280;19751;40.274;18.268;2023-01-31T04:00:22;101004.41;;;6.79;100.00
33404;BME280;19751;40.274;18.268;2023-01-31T04:02:56;100999.88;;;6.79;100.00
33404;BME280;19751;40.274;18.268;2023-01-31T04:05:24;100990.34;;;6.77;100.00
33404;BME280;19751;40.274;18.268;2023-01-31T04:07:55;100992.19;;;6.76;100.00
33404;BME280;19751;40.274;18.268;2023-01-31T04:10:21;100982.97;;;6.79;100.00
33404;BME280;19751;40.274;18.268;2023-01-31T04:12:47;100988.66;;;6.76;100.00
33404;BME280;19751;40.274;18.268;2023-01-31T04:15:14;100983.09;;;6.69;100.00
33404;BME280;19751;40.274;18.268;2023-01-31T04:17:39;101002.84;;;6.68;100.00
33404;BME280;19751;40.274;18.268;2023-01-31T04:20:06;101002.47;;;6.63;100.00
33404;BME280;19751;40.274;18.268;2023-01-31T04:22:31;101003.94;;;6.57;100.00
33404;BME280;19751;40.274;18.268;2023-01-31T04:24:57;100995.25;;;6.63;100.00
33404;BME280;19751;40.274;18.268;2023-01-31T04:27:23;101002.16;;;6.66;100.00
33404;BME280;19751;40.274;18.268;2023-01-31T04:29:48;100995.78;;;6.67;100.00
33404;BME280;19751;40.274;18.268;2023-01-31T04:32:14;100991.13;;;6.69;100.00
33404;BME280;19751;40.274;18.268;2023-01-31T04:34:39;100988.28;;;6.70;100.00
33404;BME280;19751;40.274;18.268;2023-01-31T04:37:05;100976.13;;;6.76;100.00
33404;BME280;19751;40.274;18.268;2023-01-31T04:39:31;100972.81;;;6.82;100.00
33404;BME280;19751;40.274;18.268;2023-01-31T04:41:56;100965.47;;;6.84;100.00
33404;BME280;19751;40.274;18.268;2023-01-31T04:44:22;100973.16;;;6.87;100.00
33404;BME280;19751;40.274;18.268;2023-01-31T04:46:48;100972.16;;;6.88;100.00
33404;BME280;19751;40.274;18.268;2023-01-31T04:49:14;100970.66;;;6.86;100.00
33404;BME280;19751;40.274;18.268;2023-01-31T04:51:40;100971.47;;;6.86;100.00
33404;BME280;19751;40.274;18.268;2023-01-31T04:54:06;100982.03;;;6.88;100.00
33404;BME280;19751;40.274;18.268;2023-01-31T04:56:32;100978.84;;;6.84;100.00
33404;BME280;19751;40.274;18.268;2023-01-31T04:58:57;100976.78;;;6.78;100.00
33404;BME280;19751;40.274;18.268;2023-01-31T05:01:24;100991.19;;;6.77;100.00
33404;BME280;19751;40.274;18.268;2023-01-31T05:03:50;100978.28;;;6.72;100.00
33404;BME280;19751;40.274;18.268;2023-01-31T05:06:16;100987.44;;;6.70;100.00
33404;BME280;19751;40.274;18.268;2023-01-31T05:08:41;100987.44;;;6.70;100.00
33404;BME280;19751;40.274;18.268;2023-01-31T05:11:08;100984.78;;;6.70;100.00
33404;BME280;19751;40.274;18.268;2023-01-31T05:13:34;101000.84;;;6.70;100.00
33404;BME280;19751;40.274;18.268;2023-01-31T05:16:06;101003.03;;;6.75;100.00
33404;BME280;19751;40.274;18.268;2023-01-31T05:18:32;101000.72;;;6.80;100.00
33404;BME280;19751;40.274;18.268;2023-01-31T05:21:00;101000.75;;;6.88;100.00
33404;BME280;19751;40.274;18.268;2023-01-31T05:23:26;101004.81;;;6.92;100.00
33404;BME280;19751;40.274;18.268;2023-01-31T05:25:52;101012.84;;;6.92;100.00
33404;BME280;19751;40.274;18.268;2023-01-31T05:28:17;101007.47;;;6.92;100.00
33404;BME280;19751;40.274;18.268;2023-01-31T05:30:43;101012.69;;;6.93;100.00
33404;BME280;19751;40.274;18.268;2023-01-31T05:33:09;101019.41;;;6.97;100.00
33404;BME280;19751;40.274;18.268;2023-01-31T05:35:34;101022.28;;;7.04;100.00
33404;BME280;19751;40.274;18.268;2023-01-31T05:38:00;101042.38;;;7.08;100.00
33404;BME280;19751;40.274;18.268;2023-01-31T05:40:26;101058.69;;;7.15;100.00
33404;BME280;19751;40.274;18.268;2023-01-31T05:42:56;101076.13;;;7.19;100.00
33404;BME280;19751;40.274;18.268;2023-01-31T05:45:22;101088.19;;;7.23;100.00
33404;BME280;19751;40.274;18.268;2023-01-31T05:47:48;101069.28;;;7.25;100.00
33404;BME280;19751;40.274;18.268;2023-01-31T05:50:15;101073.47;;;7.27;100.00
33404;BME280;19751;40.274;18.268;2023-01-31T05:52:42;101073.84;;;7.32;100.00
33404;BME280;19751;40.274;18.268;2023-01-31T05:55:07;101074.03;;;7.39;100.00
33404;BME280;19751;40.274;18.268;2023-01-31T05:57:33;101081.59;;;7.43;100.00
33404;BME280;19751;40.274;18.268;2023-01-31T06:00:01;101074.91;;;7.47;100.00
33404;BME280;19751;40.274;18.268;2023-01-31T06:02:27;101073.06;;;7.48;100.00
33404;BME280;19751;40.274;18.268;2023-01-31T06:04:52;101077.59;;;7.47;100.00
33404;BME280;19751;40.274;18.268;2023-01-31T06:07:17;101079.59;;;7.45;100.00
33404;BME280;19751;40.274;18.268;2023-01-31T06:09:43;101075.75;;;7.48;100.00
33404;BME280;19751;40.274;18.268;2023-01-31T06:12:12;101082.66;;;7.51;100.00
33404;BME280;19751;40.274;18.268;2023-01-31T06:14:39;101079.97;;;7.51;100.00
33404;BME280;19751;40.274;18.268;2023-01-31T06:17:04;101090.34;;;7.54;100.00
33404;BME280;19751;40.274;18.268;2023-01-31T06:19:30;101084.50;;;7.58;100.00
33404;BME280;19751;40.274;18.268;2023-01-31T06:21:56;101085.50;;;7.57;100.00
33404;BME280;19751;40.274;18.268;2023-01-31T06:24:21;101079.31;;;7.57;100.00
33404;BME280;19751;40.274;18.268;2023-01-31T06:26:47;101085.19;;;7.60;100.00
33404;BME280;19751;40.274;18.268;2023-01-31T06:29:13;101063.44;;;7.63;100.00
33404;BME280;19751;40.274;18.268;2023-01-31T06:31:38;101062.56;;;7.63;100.00
33404;BME280;19751;40.274;18.268;2023-01-31T06:34:07;101062.56;;;7.63;100.00
33404;BME280;19751;40.274;18.268;2023-01-31T06:36:32;101060.56;;;7.65;100.00
33404;BME280;19751;40.274;18.268;2023-01-31T06:38:58;101067.91;;;7.63;100.00
33404;BME280;19751;40.274;18.268;2023-01-31T06:41:24;101060.06;;;7.61;100.00
33404;BME280;19751;40.274;18.268;2023-01-31T06:43:49;101066.09;;;7.63;100.00
33404;BME280;19751;40.274;18.268;2023-01-31T06:46:16;101060.88;;;7.62;100.00
33404;BME280;19751;40.274;18.268;2023-01-31T06:48:42;101070.59;;;7.63;100.00
33404;BME280;19751;40.274;18.268;2023-01-31T06:51:08;101069.41;;;7.57;100.00
33404;BME280;19751;40.274;18.268;2023-01-31T06:53:34;101078.81;;;7.61;100.00
33404;BME280;19751;40.274;18.268;2023-01-31T06:56:00;101072.97;;;7.66;100.00
33404;BME280;19751;40.274;18.268;2023-01-31T06:58:26;101077.31;;;7.67;100.00
33404;BME280;19751;40.274;18.268;2023-01-31T07:00:56;101075.50;;;7.67;100.00
33404;BME280;19751;40.274;18.268;2023-01-31T07:03:23;101055.56;;;7.70;100.00
33404;BME280;19751;40.274;18.268;2023-01-31T07:05:48;101070.16;;;7.76;100.00
33404;BME280;19751;40.274;18.268;2023-01-31T07:08:14;101081.91;;;7.83;100.00
33404;BME280;19751;40.274;18.268;2023-01-31T07:10:41;101090.81;;;7.91;100.00
33404;BME280;19751;40.274;18.268;2023-01-31T07:13:06;101082.44;;;7.94;100.00
33404;BME280;19751;40.274;18.268;2023-01-31T07:15:32;101090.31;;;7.96;100.00
33404;BME280;19751;40.274;18.268;2023-01-31T07:17:58;101097.19;;;7.90;100.00
33404;BME280;19751;40.274;18.268;2023-01-31T07:20:24;101087.97;;;7.85;100.00
33404;BME280;19751;40.274;18.268;2023-01-31T07:22:57;101099.84;;;7.82;100.00
33404;BME280;19751;40.274;18.268;2023-01-31T07:25:24;101105.19;;;7.82;100.00
33404;BME280;19751;40.274;18.268;2023-01-31T07:27:50;101133.56;;;7.85;100.00
33404;BME280;19751;40.274;18.268;2023-01-31T07:30:15;101146.13;;;7.84;100.00
33404;BME280;19751;40.274;18.268;2023-01-31T07:32:41;101171.25;;;7.83;100.00
33404;BME280;19751;40.274;18.268;2023-01-31T07:35:07;101170.56;;;7.81;100.00
33404;BME280;19751;40.274;18.268;2023-01-31T07:37:33;101170.22;;;7.76;100.00
33404;BME280;19751;40.274;18.268;2023-01-31T07:39:59;101171.06;;;7.77;100.00
33404;BME280;19751;40.274;18.268;2023-01-31T07:42:24;101171.59;;;7.80;100.00
33404;BME280;19751;40.274;18.268;2023-01-31T07:44:50;101170.75;;;7.80;100.00
33404;BME280;19751;40.274;18.268;2023-01-31T07:47:15;101161.38;;;7.84;100.00
33404;BME280;19751;40.274;18.268;2023-01-31T07:49:41;101151.00;;;7.89;100.00
33404;BME280;19751;40.274;18.268;2023-01-31T07:52:07;101148.50;;;7.95;100.00
33404;BME280;19751;40.274;18.268;2023-01-31T07:54:33;101154.56;;;7.97;100.00
33404;BME280;19751;40.274;18.268;2023-01-31T07:56:59;101157.22;;;7.97;100.00
33404;BME280;19751;40.274;18.268;2023-01-31T07:59:24;101165.09;;;7.99;100.00
33404;BME280;19751;40.274;18.268;2023-01-31T08:01:50;101163.78;;;8.03;100.00
33404;BME280;19751;40.274;18.268;2023-01-31T08:04:34;101156.25;;;8.07;100.00
33404;BME280;19751;40.274;18.268;2023-01-31T08:07:00;101159.28;;;8.12;100.00
33404;BME280;19751;40.274;18.268;2023-01-31T08:09:27;101162.16;;;8.18;100.00
33404;BME280;19751;40.274;18.268;2023-01-31T08:11:53;101154.63;;;8.22;100.00
33404;BME280;19751;40.274;18.268;2023-01-31T08:14:19;101162.31;;;8.25;100.00
33404;BME280;19751;40.274;18.268;2023-01-31T08:16:50;101170.91;;;8.29;100.00
33404;BME280;19751;40.274;18.268;2023-01-31T08:19:16;101173.44;;;8.30;100.00
33404;BME280;19751;40.274;18.268;2023-01-31T08:21:42;101173.78;;;8.35;100.00
33404;BME280;19751;40.274;18.268;2023-01-31T08:24:08;101172.75;;;8.36;100.00
33404;BME280;19751;40.274;18.268;2023-01-31T08:26:33;101167.09;;;8.39;100.00
33404;BME280;19751;40.274;18.268;2023-01-31T08:28:59;101170.97;;;8.45;100.00
33404;BME280;19751;40.274;18.268;2023-01-31T08:31:26;101154.53;;;8.48;100.00
33404;BME280;19751;40.274;18.268;2023-01-31T08:33:53;101160.75;;;8.57;100.00
33404;BME280;19751;40.274;18.268;2023-01-31T08:36:19;101155.06;;;8.68;100.00
33404;BME280;19751;40.274;18.268;2023-01-31T08:38:46;101166.81;;;8.75;100.00
33404;BME280;19751;40.274;18.268;2023-01-31T08:41:13;101161.94;;;8.87;100.00
33404;BME280;19751;40.274;18.268;2023-01-31T08:43:39;101162.78;;;8.95;100.00
33404;BME280;19751;40.274;18.268;2023-01-31T08:46:05;101167.16;;;9.05;100.00
33404;BME280;19751;40.274;18.268;2023-01-31T08:48:35;101178.06;;;9.11;100.00
33404;BME280;19751;40.274;18.268;2023-01-31T08:51:02;101188.78;;;9.19;100.00
33404;BME280;19751;40.274;18.268;2023-01-31T08:53:28;101177.19;;;9.27;100.00
33404;BME280;19751;40.274;18.268;2023-01-31T08:56:01;101184.22;;;9.36;100.00
33404;BME280;19751;40.274;18.268;2023-01-31T08:58:30;101187.94;;;9.43;100.00
33404;BME280;19751;40.274;18.268;2023-01-31T09:01:07;101194.13;;;9.52;100.00
33404;BME280;19751;40.274;18.268;2023-01-31T09:03:33;101209.75;;;9.57;99.58
33404;BME280;19751;40.274;18.268;2023-01-31T09:06:00;101196.63;;;9.62;94.78
33404;BME280;19751;40.274;18.268;2023-01-31T09:08:27;101205.03;;;9.67;90.98
33404;BME280;19751;40.274;18.268;2023-01-31T09:10:54;101204.31;;;9.73;84.78
33404;BME280;19751;40.274;18.268;2023-01-31T09:13:20;101207.34;;;9.78;83.17
33404;BME280;19751;40.274;18.268;2023-01-31T09:15:46;101206.66;;;9.84;84.63
33404;BME280;19751;40.274;18.268;2023-01-31T09:18:21;101218.75;;;9.88;85.84
33404;BME280;19751;40.274;18.268;2023-01-31T09:20:46;101220.22;;;9.91;85.50
33404;BME280;19751;40.274;18.268;2023-01-31T09:23:12;101220.09;;;9.92;84.67
33404;BME280;19751;40.274;18.268;2023-01-31T09:25:37;101218.22;;;9.93;83.07
33404;BME280;19751;40.274;18.268;2023-01-31T09:28:03;101230.31;;;9.97;82.09
33404;BME280;19751;40.274;18.268;2023-01-31T09:30:29;101245.09;;;10.01;79.54
33404;BME280;19751;40.274;18.268;2023-01-31T09:32:54;101228.44;;;10.06;76.99
33404;BME280;19751;40.274;18.268;2023-01-31T09:35:20;101235.34;;;10.08;77.20
33404;BME280;19751;40.274;18.268;2023-01-31T09:37:45;101229.44;;;10.13;79.11
33404;BME280;19751;40.274;18.268;2023-01-31T09:40:18;101227.22;;;10.16;79.72
33404;BME280;19751;40.274;18.268;2023-01-31T09:42:47;101227.69;;;10.20;81.17
33404;BME280;19751;40.274;18.268;2023-01-31T09:45:16;101225.00;;;10.20;76.27
33404;BME280;19751;40.274;18.268;2023-01-31T09:47:51;101223.00;;;10.22;76.37
33404;BME280;19751;40.274;18.268;2023-01-31T09:50:30;101228.72;;;10.27;76.96
33404;BME280;19751;40.274;18.268;2023-01-31T09:52:58;101222.78;;;10.32;77.00
33404;BME280;19751;40.274;18.268;2023-01-31T09:58:31;101215.22;;;10.35;73.21
33404;BME280;19751;40.274;18.268;2023-01-31T10:01:05;101221.44;;;10.36;71.71
33404;BME280;19751;40.274;18.268;2023-01-31T10:06:23;101229.69;;;10.34;66.33
33404;BME280;19751;40.274;18.268;2023-01-31T10:11:46;101221.56;;;10.42;64.20
33404;BME280;19751;40.274;18.268;2023-01-31T10:14:44;101227.59;;;10.44;63.35
33404;BME280;19751;40.274;18.268;2023-01-31T10:17:21;101220.69;;;10.50;63.59
33404;BME280;19751;40.274;18.268;2023-01-31T10:25:19;101224.00;;;10.60;62.09
33404;BME280;19751;40.274;18.268;2023-01-31T10:27:53;101222.97;;;10.61;60.31
33404;BME280;19751;40.274;18.268;2023-01-31T10:30:24;101222.81;;;10.63;59.12
33404;BME280;19751;40.274;18.268;2023-01-31T10:33:14;101219.09;;;10.64;58.84
33404;BME280;19751;40.274;18.268;2023-01-31T10:35:44;101213.69;;;10.64;58.89
33404;BME280;19751;40.274;18.268;2023-01-31T10:38:23;101205.63;;;10.64;59.94
33404;BME280;19751;40.274;18.268;2023-01-31T10:40:56;101206.94;;;10.68;59.24
33404;BME280;19751;40.274;18.268;2023-01-31T10:43:35;101218.00;;;10.73;57.65
33404;BME280;19751;40.274;18.268;2023-01-31T10:46:10;101227.06;;;10.80;58.09
33404;BME280;19751;40.274;18.268;2023-01-31T10:48:36;101221.47;;;10.82;56.82
33404;BME280;19751;40.274;18.268;2023-01-31T10:56:30;101215.75;;;10.85;56.38
33404;BME280;19751;40.274;18.268;2023-01-31T10:58:59;101207.47;;;10.86;55.92
33404;BME280;19751;40.274;18.268;2023-01-31T11:01:25;101217.41;;;10.86;56.21
33404;BME280;19751;40.274;18.268;2023-01-31T11:03:53;101221.13;;;10.85;56.60
33404;BME280;19751;40.274;18.268;2023-01-31T11:06:20;101211.19;;;10.85;55.13
33404;BME280;19751;40.274;18.268;2023-01-31T11:11:16;101211.19;;;10.85;53.51
33404;BME280;19751;40.274;18.268;2023-01-31T11:16:29;101215.25;;;10.81;53.79
33404;BME280;19751;40.274;18.268;2023-01-31T11:18:58;101216.09;;;10.82;53.66
33404;BME280;19751;40.274;18.268;2023-01-31T11:21:29;101204.63;;;10.88;52.56
33404;BME280;19751;40.274;18.268;2023-01-31T11:24:14;101213.34;;;10.90;52.28
33404;BME280;19751;40.274;18.268;2023-01-31T11:27:08;101195.97;;;10.92;51.24
33404;BME280;19751;40.274;18.268;2023-01-31T11:29:45;101198.31;;;10.95;49.15
33404;BME280;19751;40.274;18.268;2023-01-31T11:32:22;101219.50;;;10.99;47.89
33404;BME280;19751;40.274;18.268;2023-01-31T11:34:57;101220.66;;;11.04;47.15
33404;BME280;19751;40.274;18.268;2023-01-31T11:37:23;101208.00;;;11.05;46.21
33404;BME280;19751;40.274;18.268;2023-01-31T11:40:15;101199.44;;;11.01;46.07
33404;BME280;19751;40.274;18.268;2023-01-31T11:42:55;101204.00;;;11.01;45.67
33404;BME280;19751;40.274;18.268;2023-01-31T11:45:22;101200.28;;;11.02;45.59
33404;BME280;19751;40.274;18.268;2023-01-31T11:47:53;101202.81;;;11.03;46.33
33404;BME280;19751;40.274;18.268;2023-01-31T11:50:32;101202.81;;;11.03;48.01
33404;BME280;19751;40.274;18.268;2023-01-31T11:53:42;101211.53;;;11.05;49.15
33404;BME280;19751;40.274;18.268;2023-01-31T11:55:50;101199.56;;;11.08;49.50
33404;BME280;19751;40.274;18.268;2023-01-31T11:58:23;101198.53;;;11.09;48.80
33404;BME280;19751;40.274;18.268;2023-01-31T12:00:57;101201.59;;;11.06;46.09
33404;BME280;19751;40.274;18.268;2023-01-31T12:03:24;101196.69;;;11.09;46.11
33404;BME280;19751;40.274;18.268;2023-01-31T12:05:58;101201.34;;;11.15;46.00
33404;BME280;19751;40.274;18.268;2023-01-31T12:08:35;101214.28;;;11.20;46.74
33404;BME280;19751;40.274;18.268;2023-01-31T12:13:50;101210.91;;;11.03;50.13
33404;BME280;19751;40.274;18.268;2023-01-31T12:16:19;101214.66;;;10.94;50.54
33404;BME280;19751;40.274;18.268;2023-01-31T12:26:40;101208.50;;;10.85;49.82
33404;BME280;19751;40.274;18.268;2023-01-31T12:37:25;101214.25;;;11.05;48.94
33404;BME280;19751;40.274;18.268;2023-01-31T12:45:46;101230.34;;;10.90;45.03
33404;BME280;19751;40.274;18.268;2023-01-31T12:50:54;101251.03;;;10.75;44.03
33404;BME280;19751;40.274;18.268;2023-01-31T12:58:45;101247.94;;;10.78;43.91
33404;BME280;19751;40.274;18.268;2023-01-31T13:01:39;101242.88;;;10.83;44.94
33404;BME280;19751;40.274;18.268;2023-01-31T13:06:58;101247.06;;;10.86;44.05
33404;BME280;19751;40.274;18.268;2023-01-31T13:09:33;101249.75;;;10.86;44.39
33404;BME280;19751;40.274;18.268;2023-01-31T13:14:40;101263.06;;;10.87;44.02
33404;BME280;19751;40.274;18.268;2023-01-31T13:17:11;101270.97;;;10.89;42.34
33404;BME280;19751;40.274;18.268;2023-01-31T13:22:39;101257.50;;;10.89;41.66
33404;BME280;19751;40.274;18.268;2023-01-31T13:25:46;101252.28;;;10.87;40.91
33404;BME280;19751;40.274;18.268;2023-01-31T13:28:18;101253.97;;;10.88;41.31
33404;BME280;19751;40.274;18.268;2023-01-31T13:31:04;101252.28;;;10.87;41.58
33404;BME280;19751;40.274;18.268;2023-01-31T13:33:39;101256.66;;;10.88;41.52
33404;BME280;19751;40.274;18.268;2023-01-31T13:36:22;101259.53;;;10.87;41.28
33404;BME280;19751;40.274;18.268;2023-01-31T13:38:48;101282.28;;;10.84;41.45
33404;BME280;19751;40.274;18.268;2023-01-31T13:41:31;101275.38;;;10.82;41.53
33404;BME280;19751;40.274;18.268;2023-01-31T13:43:59;101279.09;;;10.81;41.22
33404;BME280;19751;40.274;18.268;2023-01-31T13:49:47;101279.44;;;10.78;40.79
33404;BME280;19751;40.274;18.268;2023-01-31T13:52:34;101274.06;;;10.78;40.44
33404;BME280;19751;40.274;18.268;2023-01-31T13:55:22;101283.84;;;10.79;40.18
33404;BME280;19751;40.274;18.268;2023-01-31T13:58:02;101277.59;;;10.78;39.38
33404;BME280;19751;40.274;18.268;2023-01-31T14:00:39;101278.78;;;10.76;39.90
33404;BME280;19751;40.274;18.268;2023-01-31T14:03:09;101276.09;;;10.76;40.34
33404;BME280;19751;40.274;18.268;2023-01-31T14:06:07;101271.75;;;10.75;41.03
33404;BME280;19751;40.274;18.268;2023-01-31T14:13:46;101277.09;;;10.83;40.57
33404;BME280;19751;40.274;18.268;2023-01-31T14:16:42;101275.03;;;10.85;40.89
33404;BME280;19751;40.274;18.268;2023-01-31T14:21:55;101287.31;;;10.87;41.56
33404;BME280;19751;40.274;18.268;2023-01-31T14:27:23;101301.50;;;10.81;41.68
33404;BME280;19751;40.274;18.268;2023-01-31T14:34:56;101300.94;;;10.63;41.07
33404;BME280;19751;40.274;18.268;2023-01-31T14:43:09;101313.59;;;10.54;41.34
33404;BME280;19751;40.274;18.268;2023-01-31T14:48:41;101321.88;;;10.44;42.36
33404;BME280;19751;40.274;18.268;2023-01-31T14:51:39;101322.06;;;10.43;42.65
33404;BME280;19751;40.274;18.268;2023-01-31T14:59:55;101325.47;;;10.37;44.46
33404;BME280;19751;40.274;18.268;2023-01-31T15:05:38;101322.91;;;10.35;44.89
33404;BME280;19751;40.274;18.268;2023-01-31T15:16:33;101356.59;;;10.23;43.99
33404;BME280;19751;40.274;18.268;2023-01-31T15:21:48;101355.25;;;10.19;43.06
33404;BME280;19751;40.274;18.268;2023-01-31T15:24:18;101350.19;;;10.16;43.45
33404;BME280;19751;40.274;18.268;2023-01-31T15:26:47;101360.13;;;10.15;43.59